Winston-Salem, NC

8:37 PM EDT en Octubre 24, 2014 (GMT -0400)
Waughtown | Change Station
CLOSE
Current Station
Estación meteorológica personal
Location: WINSTON-SALEM, NC
Altura: 853 ft
Estaciones meteorológicas cercanas

Alt 853 ft 36.06 °N, 80.24 °W | Updated 7 seconds ago

Clear
Despejado
52.3 ° F
Sensación térmica 52.3 ° F
N
0.0
Viento Variable Viento desde Sur
Gusts 0.0 mph

Hoy
Alta -- | Baja -- ° F
--% Posibilidad de precipitaciones
Ayer
Alta -- | Baja -- ° F
Precip. -- pul
7:35 AM 6:33 PM
Luna nueva, 1% visible
Presión 30.00 pul
Visibilidad 10.0 Millas
Nubes Despejado
Punto de rocío 43 ° F
Humedad 70%
Precipitaciones 0.00 pul
Espesor de la nieve No disponible.
UV 0 de una escala de 12
Polen 2.00 de una escala de 12
Ozono Buena
PM2.5 Buena
Flu Activity Local Activity
METAR KINT 242354Z 00000KT 10SM CLR 12/06 A3000 RMK AO2 SLP157 T01220056 10206 20122 53003

More Conditions Fewer Conditions

Presión 30.00 pul
Visibilidad 10.0 Millas
Nubes Despejado
Punto de rocío 43 ° F
Humedad 70%
Precipitaciones 0.00 pul
Espesor de la nieve No disponible.
UV 0 de una escala de 12
Polen 2.00 de una escala de 12
Ozono Buena
PM2.5 Buena
Flu Activity Local Activity
METAR KINT 242354Z 00000KT 10SM CLR 12/06 A3000 RMK AO2 SLP157 T01220056 10206 20122 53003

More Conditions Fewer Conditions

10-Day Weather Forecast

Almanac

Astronomía

Oct. 24, 2014 Salida Puesta
Hora real 7:35 AM EDT 6:33 PM EDT
Crepúsculo civil 7:09 AM EDT 6:59 PM EDT
Crepúsculo náutico 6:39 AM EDT 7:29 PM EDT
Crepúsculo astronómico 6:09 AM EDT 7:59 PM EDT
Luna 8:12 AM EDT (10/24) 7:14 PM EDT (10/24)
Horas de luz 11h 50m
Horas de luz
10h 57m
Tomorrow will be 2m 6s shorter.
Luna nueva, 1% of the Moon is Illuminated
Hoy
Luna nueva
Oct 30
Cuarto creciente
Nov 6
Luna llena
Nov 14
Cuarto menguante
Nov 22
Nueva

Extremos de hoy

Máximos del estado Bajos del estado

Community

WunderPhotos

Upload Photos

1,764,727 ¡fotos cargadas!

WunderBlogs® & News

Nearby

Calidad del aire

  Calidad del aire Índice AQ Contaminante
Ayer Buena
OZONE
Ayer Buena
PM2.5
Real Buena
PM2.5
Real Buena
OZONE
Viernes Buena
PM2.5
Viernes Buena
OZONE
Sábado Moderada
PM2.5
Sábado Buena
OZONE
Domingo Moderada
PM2.5
Domingo Buena
OZONE
Lunes Moderada
PM2.5
Lunes Buena
OZONE

Grosos de nieve

Estación Profundido Altura
No tenemos constancia de nieve nueva.

Actividad de terremotos

Ciudad Distance Mag. Tiempo y dato
No hay informes recientes de la actividad sísmica.
Magnitud mínima muestra es 2,5.

Temperaturas de aguas costeras

Lugar Temperatura
Sin partes meteorológicos de las estaciones

Estaciones meteorológicas cercanas